ADDS METAR Data

Data at: 0512 UTC 19 Jan 2018

METAR for:KPYM (Plymouth Muni, MA, US)
Text:KPYM 190452Z AUTO 29006KT 10SM CLR M04/M09 A2994 RMK AO2 SLP140 T10391089 400171039
Temperature: -3.9°C ( 25°F)
Dewpoint: -8.9°C ( 16°F) [RH = 68%]
Pressure (altimeter):29.94 inches Hg (1014.0 mb) [Sea level pressure: 1014.0 mb]
Winds:from the WNW (290 degrees) at 7 MPH (6 knots; 3.1 m/s)
Visibility:10 or more sm (16+ km)
Ceiling:at least 12,000 feet AGL
Clouds:sky clear below 12,000 feet AGL
QC Flag:automated observation with no human augmentation